Moberly, Missouri
Current Conditions -  °F | °C
As of 9:55 PM on Wednesday 22 Oct 2014 (Local Time) from KVER Reporting Station
Haze Haze  
Wind Chill: 53°   Ceiling: Unl
Heat Index: 53°   Visibility: 2.5mi
Dew Point: 43°   Wind: 8mph
Humidity: 69%   Direction: 120°ESE
Pressure: 30.17"   Gusts: NA
Location:  39.43°N, 92.43°W
Report Text: KVER 230255Z AUTO 12007KT 2 1/2SM HZ CLR 12/06 A3017 RMK AO2 T01170061
Loading
Personal Weather Stations






























Interactive Weather Map
Tropical Storm Tracking
New forecast layout! Learn more

10-Day Weather Forecast

Advertisements
Track Severe Weather on mobile